Wetterstation Vordersexau
Wetterdaten: Woche 21.09.15 - 27.09.15 (KW39)
Datum Zeit Temp. A. Feuchte A. Luftdruck Regen Wind Richtung Taupunkt Windchill Windben
21.09.2015 00:00 8,1 C 85 % 1019,7 hPa 0,0 l/m 0,0 km/h O-SO 5,7 C 8,1 C 0,0 km/h
21.09.2015 01:00 7,7 C 86 % 1019,2 hPa 0,0 l/m 0,0 km/h NO 5,5 C 7,7 C 0,0 km/h
21.09.2015 02:00 7,0 C 85 % 1018,5 hPa 0,0 l/m 0,0 km/h NO 4,7 C 7,0 C 0,0 km/h
21.09.2015 03:00 6,7 C 85 % 1018,0 hPa 0,0 l/m 0,0 km/h NO 4,4 C 6,7 C 0,0 km/h
21.09.2015 04:00 6,1 C 86 % 1017,6 hPa 0,0 l/m 0,0 km/h NO 3,9 C 6,1 C 0,0 km/h
21.09.2015 05:00 5,8 C 85 % 1017,1 hPa 0,0 l/m 0,0 km/h NO 3,5 C 5,8 C 0,0 km/h
21.09.2015 06:00 5,8 C 85 % 1017,0 hPa 0,0 l/m 0,0 km/h NO 3,5 C 5,8 C 0,0 km/h
21.09.2015 07:00 5,5 C 84 % 1016,9 hPa 0,0 l/m 0,0 km/h SO 3,0 C 5,5 C 0,0 km/h
21.09.2015 08:00 7,9 C 83 % 1016,8 hPa 0,0 l/m 0,0 km/h SO 5,2 C 7,9 C 0,0 km/h
21.09.2015 09:00 14,4 C 83 % 1016,1 hPa 0,0 l/m 0,0 km/h N 11,5 C 14,4 C 0,0 km/h
21.09.2015 10:00 18,0 C 67 % 1016,0 hPa 0,0 l/m 0,0 km/h W-SW 11,8 C 18,0 C 0,0 km/h
21.09.2015 11:00 19,9 C 61 % 1015,6 hPa 0,0 l/m 9,1 km/h W 12,2 C 18,8 C 5,0 km/h
21.09.2015 12:00 22,1 C 54 % 1014,7 hPa 0,0 l/m 1,9 km/h N 12,3 C 22,1 C 1,1 km/h
21.09.2015 13:00 24,0 C 49 % 1013,5 hPa 0,0 l/m 0,0 km/h N-NO 12,6 C 24,0 C 0,0 km/h
21.09.2015 14:00 24,8 C 45 % 1012,4 hPa 0,0 l/m 0,0 km/h W-NW 12,0 C 24,8 C 0,0 km/h
21.09.2015 15:00 26,6 C 42 % 1011,6 hPa 0,0 l/m 2,6 km/h N-NW 12,6 C 26,6 C 1,4 km/h
21.09.2015 16:00 27,8 C 39 % 1011,0 hPa 0,0 l/m 0,0 km/h W-SW 12,6 C 27,8 C 0,0 km/h
21.09.2015 17:00 25,9 C 42 % 1010,7 hPa 0,0 l/m 7,8 km/h W-NW 12,0 C 25,6 C 4,3 km/h
21.09.2015 18:00 21,9 C 50 % 1010,5 hPa 0,0 l/m 0,0 km/h W-SW 11,0 C 21,9 C 0,0 km/h
21.09.2015 19:00 15,0 C 68 % 1010,2 hPa 0,0 l/m 0,0 km/h S-SO 9,1 C 15,0 C 0,0 km/h
21.09.2015 20:00 12,8 C 75 % 1010,4 hPa 0,0 l/m 0,0 km/h O-NO 8,5 C 12,8 C 0,0 km/h
21.09.2015 21:00 12,1 C 81 % 1009,9 hPa 0,0 l/m 0,0 km/h O-SO 8,9 C 12,1 C 0,0 km/h
21.09.2015 22:00 11,4 C 83 % 1009,9 hPa 0,0 l/m 0,0 km/h O 8,6 C 11,4 C 0,0 km/h
21.09.2015 23:00 11,1 C 84 % 1009,7 hPa 0,0 l/m 0,0 km/h O-NO 8,5 C 11,1 C 0,0 km/h
22.09.2015 00:00 10,9 C 84 % 1009,4 hPa 0,0 l/m 0,0 km/h O-NO 8,3 C 10,9 C 0,0 km/h
22.09.2015 01:00 12,1 C 84 % 1009,1 hPa 0,0 l/m 0,0 km/h N-NO 9,5 C 12,1 C 0,0 km/h
22.09.2015 02:00 11,1 C 84 % 1009,0 hPa 0,0 l/m 0,0 km/h NO 8,5 C 11,1 C 0,0 km/h
22.09.2015 03:00 10,1 C 85 % 1008,3 hPa 0,0 l/m 3,9 km/h NO 7,7 C 10,1 C 2,2 km/h
22.09.2015 04:00 10,4 C 85 % 1007,9 hPa 0,0 l/m 0,0 km/h S 8,0 C 10,4 C 0,0 km/h
22.09.2015 05:00 13,5 C 82 % 1007,3 hPa 0,0 l/m 7,1 km/h S-SO 10,5 C 13,1 C 4,0 km/h
22.09.2015 06:00 14,4 C 76 % 1006,9 hPa 0,0 l/m 6,5 km/h S-SW 10,2 C 14,4 C 3,6 km/h
22.09.2015 07:00 14,6 C 76 % 1006,5 hPa 0,0 l/m 1,3 km/h S-SW 10,4 C 14,6 C 0,7 km/h
22.09.2015 08:00 15,3 C 73 % 1005,9 hPa 0,0 l/m 13,0 km/h SW 10,5 C 12,2 C 7,2 km/h
22.09.2015 09:00 15,8 C 71 % 1005,6 hPa 0,0 l/m 25,3 km/h W 10,6 C 9,6 C 14,0 km/h
22.09.2015 10:00 16,4 C 68 % 1005,5 hPa 0,0 l/m 14,9 km/h W-SW 10,5 C 12,9 C 8,3 km/h
22.09.2015 11:00 16,3 C 69 % 1005,2 hPa 0,0 l/m 21,4 km/h SW 10,6 C 11,1 C 11,9 km/h
22.09.2015 12:00 15,3 C 73 % 1005,0 hPa 0,0 l/m 16,2 km/h S-SW 10,5 C 11,2 C 9,0 km/h
22.09.2015 13:00 19,2 C 64 % 1004,1 hPa 0,0 l/m 18,8 km/h W 12,2 C 15,4 C 10,4 km/h
22.09.2015 14:00 16,7 C 68 % 1003,5 hPa 0,0 l/m 36,9 km/h SW 10,8 C 9,2 C 20,5 km/h
22.09.2015 15:00 14,1 C 82 % 1003,8 hPa 0,0 l/m 3,2 km/h SW 11,1 C 14,1 C 1,8 km/h
22.09.2015 16:00 13,5 C 84 % 1003,4 hPa 0,4 l/m 25,9 km/h S-SO 10,8 C 6,4 C 14,4 km/h
22.09.2015 17:00 18,3 C 74 % 1002,9 hPa 0,4 l/m 16,2 km/h S 13,6 C 14,9 C 9,0 km/h
22.09.2015 18:00 15,3 C 75 % 1002,9 hPa 0,0 l/m 7,8 km/h S-SO 10,9 C 14,5 C 4,3 km/h
22.09.2015 19:00 14,0 C 79 % 1002,0 hPa 0,0 l/m 0,0 km/h S 10,4 C 14,0 C 0,0 km/h
22.09.2015 20:00 11,9 C 85 % 1002,8 hPa 4,1 l/m 0,6 km/h W 9,5 C 11,9 C 0,4 km/h
22.09.2015 21:00 11,2 C 85 % 1003,8 hPa 1,2 l/m 9,7 km/h W 8,8 C 9,1 C 5,4 km/h
22.09.2015 22:00 11,2 C 84 % 1004,4 hPa 1,7 l/m 0,0 km/h SO 8,6 C 11,2 C 0,0 km/h
22.09.2015 23:00 10,9 C 84 % 1004,3 hPa 0,4 l/m 0,0 km/h W-SW 8,3 C 10,9 C 0,0 km/h
23.09.2015 00:00 11,1 C 84 % 1004,8 hPa 0,0 l/m 3,9 km/h W-SW 8,5 C 11,1 C 2,2 km/h
23.09.2015 01:00 10,1 C 85 % 1005,0 hPa 0,0 l/m 0,0 km/h W 7,7 C 10,1 C 0,0 km/h
23.09.2015 02:00 10,6 C 84 % 1005,4 hPa 0,0 l/m 9,1 km/h W-SW 8,0 C 8,8 C 5,0 km/h
23.09.2015 03:00 10,5 C 85 % 1005,6 hPa 0,0 l/m 2,6 km/h W-NW 8,1 C 10,5 C 1,4 km/h
23.09.2015 04:00 10,4 C 85 % 1005,7 hPa 0,0 l/m 14,9 km/h W-NW 8,0 C 5,7 C 8,3 km/h
23.09.2015 05:00 10,9 C 85 % 1006,0 hPa 0,0 l/m 11,0 km/h W 8,5 C 8,1 C 6,1 km/h
23.09.2015 06:00 10,4 C 85 % 1006,3 hPa 0,0 l/m 0,6 km/h W-SW 8,0 C 10,4 C 0,4 km/h
23.09.2015 07:00 10,3 C 85 % 1007,2 hPa 0,0 l/m 22,7 km/h W 7,9 C 2,9 C 12,6 km/h
23.09.2015 08:00 10,3 C 85 % 1007,9 hPa 0,0 l/m 5,2 km/h W 7,9 C 10,3 C 2,9 km/h
23.09.2015 09:00 10,8 C 86 % 1009,0 hPa 0,0 l/m 2,6 km/h S-SW 8,6 C 10,8 C 1,4 km/h
23.09.2015 10:00 10,4 C 85 % 1009,3 hPa 0,4 l/m 1,3 km/h W 8,0 C 10,4 C 0,7 km/h
23.09.2015 11:00 10,3 C 85 % 1010,4 hPa 0,4 l/m 1,3 km/h SW 7,9 C 10,3 C 0,7 km/h
23.09.2015 12:00 11,3 C 84 % 1011,2 hPa 0,4 l/m 0,0 km/h W 8,7 C 11,3 C 0,0 km/h
23.09.2015 13:00 13,2 C 85 % 1011,3 hPa 0,0 l/m 0,0 km/h S-SO 10,7 C 13,2 C 0,0 km/h
23.09.2015 14:00 13,3 C 85 % 1011,8 hPa 0,0 l/m 0,0 km/h SO 10,8 C 13,3 C 0,0 km/h
23.09.2015 15:00 13,3 C 83 % 1012,2 hPa 0,0 l/m 0,0 km/h S-SW 10,5 C 13,3 C 0,0 km/h
23.09.2015 16:00 16,9 C 72 % 1012,3 hPa 0,0 l/m 3,2 km/h W 11,8 C 16,9 C 1,8 km/h
23.09.2015 17:00 21,7 C 55 % 1013,0 hPa 0,0 l/m 0,0 km/h W 12,3 C 21,7 C 0,0 km/h
23.09.2015 18:00 15,4 C 65 % 1013,4 hPa 0,0 l/m 3,2 km/h O 8,9 C 15,4 C 1,8 km/h
23.09.2015 19:00 12,3 C 78 % 1014,2 hPa 0,0 l/m 0,0 km/h O-SO 8,6 C 12,3 C 0,0 km/h
23.09.2015 20:00 11,2 C 83 % 1014,8 hPa 0,0 l/m 7,8 km/h SO 8,4 C 10,2 C 4,3 km/h
23.09.2015 21:00 11,1 C 84 % 1015,6 hPa 0,0 l/m 0,0 km/h SO 8,5 C 11,1 C 0,0 km/h
23.09.2015 22:00 10,8 C 85 % 1015,9 hPa 0,0 l/m 0,0 km/h SO 8,4 C 10,8 C 0,0 km/h
23.09.2015 23:00 10,6 C 85 % 1016,6 hPa 0,0 l/m 0,0 km/h SO 8,2 C 10,6 C 0,0 km/h
24.09.2015 00:00 10,6 C 85 % 1016,9 hPa 0,0 l/m 0,0 km/h O-SO 8,2 C 10,6 C 0,0 km/h
24.09.2015 01:00 10,1 C 85 % 1016,8 hPa 0,0 l/m 0,0 km/h O-SO 7,7 C 10,1 C 0,0 km/h
24.09.2015 02:00 10,3 C 85 % 1017,0 hPa 0,0 l/m 0,0 km/h SO 7,9 C 10,3 C 0,0 km/h
24.09.2015 03:00 10,4 C 85 % 1017,0 hPa 0,0 l/m 0,0 km/h O-SO 8,0 C 10,4 C 0,0 km/h
24.09.2015 04:00 10,4 C 85 % 1017,4 hPa 0,0 l/m 0,0 km/h O-NO 8,0 C 10,4 C 0,0 km/h
24.09.2015 05:00 10,4 C 85 % 1017,7 hPa 0,0 l/m 0,0 km/h O-NO 8,0 C 10,4 C 0,0 km/h
24.09.2015 06:00 10,3 C 85 % 1017,6 hPa 0,0 l/m 0,0 km/h N-NO 7,9 C 10,3 C 0,0 km/h
24.09.2015 07:00 10,4 C 84 % 1017,9 hPa 0,0 l/m 0,0 km/h O-SO 7,8 C 10,4 C 0,0 km/h
24.09.2015 08:00 11,1 C 84 % 1018,3 hPa 0,0 l/m 0,6 km/h NO 8,5 C 11,1 C 0,4 km/h
24.09.2015 09:00 15,3 C 81 % 1018,5 hPa 0,0 l/m 0,0 km/h W 12,1 C 15,3 C 0,0 km/h
24.09.2015 10:00 19,4 C 66 % 1018,7 hPa 0,0 l/m 2,6 km/h W-SW 12,9 C 19,4 C 1,4 km/h
24.09.2015 11:00 20,1 C 62 % 1018,7 hPa 0,0 l/m 9,7 km/h W 12,6 C 18,8 C 5,4 km/h
24.09.2015 12:00 21,1 C 56 % 1018,6 hPa 0,0 l/m 0,0 km/h W-NW 12,0 C 21,1 C 0,0 km/h
24.09.2015 13:00 21,4 C 50 % 1018,0 hPa 0,0 l/m 0,0 km/h N-NO 10,5 C 21,4 C 0,0 km/h
24.09.2015 14:00 24,6 C 46 % 1017,4 hPa 0,0 l/m 13,0 km/h NW 12,2 C 23,1 C 7,2 km/h
24.09.2015 15:00 22,6 C 44 % 1017,1 hPa 0,0 l/m 0,6 km/h SO 9,7 C 22,6 C 0,4 km/h
24.09.2015 16:00 23,9 C 45 % 1017,1 hPa 0,0 l/m 10,4 km/h W-SW 11,2 C 22,9 C 5,8 km/h
24.09.2015 17:00 23,1 C 46 % 1017,4 hPa 0,0 l/m 0,0 km/h W 10,8 C 23,1 C 0,0 km/h
24.09.2015 18:00 18,4 C 56 % 1017,5 hPa 0,0 l/m 0,0 km/h W 9,5 C 18,4 C 0,0 km/h
24.09.2015 19:00 14,2 C 71 % 1017,8 hPa 0,0 l/m 0,0 km/h S 9,0 C 14,2 C 0,0 km/h
24.09.2015 20:00 11,8 C 78 % 1018,3 hPa 0,0 l/m 0,0 km/h SO 8,1 C 11,8 C 0,0 km/h
24.09.2015 21:00 10,5 C 82 % 1018,8 hPa 0,0 l/m 0,0 km/h SO 7,6 C 10,5 C 0,0 km/h
24.09.2015 22:00 10,0 C 83 % 1018,8 hPa 0,0 l/m 0,0 km/h O 7,2 C 10,0 C 0,0 km/h
24.09.2015 23:00 9,6 C 85 % 1019,2 hPa 0,0 l/m 0,0 km/h SO 7,2 C 9,6 C 0,0 km/h
25.09.2015 00:00 9,3 C 85 % 1019,3 hPa 0,0 l/m 0,0 km/h SO 6,9 C 9,3 C 0,0 km/h
25.09.2015 01:00 8,9 C 85 % 1019,4 hPa 0,0 l/m 0,0 km/h SO 6,5 C 8,9 C 0,0 km/h
25.09.2015 02:00 8,6 C 86 % 1019,3 hPa 0,0 l/m 0,0 km/h SO 6,4 C 8,6 C 0,0 km/h
25.09.2015 03:00 9,5 C 85 % 1019,0 hPa 0,0 l/m 0,0 km/h SO 7,1 C 9,5 C 0,0 km/h
25.09.2015 04:00 9,9 C 85 % 1019,1 hPa 0,0 l/m 0,0 km/h SO 7,5 C 9,9 C 0,0 km/h
25.09.2015 05:00 8,9 C 86 % 1019,0 hPa 0,0 l/m 0,0 km/h O-SO 6,7 C 8,9 C 0,0 km/h
25.09.2015 06:00 8,6 C 86 % 1019,3 hPa 0,0 l/m 0,0 km/h O-SO 6,4 C 8,6 C 0,0 km/h
25.09.2015 07:00 7,2 C 86 % 1019,5 hPa 0,0 l/m 0,0 km/h O-SO 5,0 C 7,2 C 0,0 km/h
25.09.2015 08:00 8,9 C 85 % 1019,9 hPa 0,0 l/m 0,0 km/h S-SO 6,5 C 8,9 C 0,0 km/h
25.09.2015 09:00 14,1 C 83 % 1020,1 hPa 0,0 l/m 0,0 km/h W 11,3 C 14,1 C 0,0 km/h
25.09.2015 10:00 18,1 C 70 % 1020,3 hPa 0,0 l/m 1,3 km/h W-NW 12,5 C 18,1 C 0,7 km/h
25.09.2015 11:00 20,2 C 61 % 1019,9 hPa 0,0 l/m 0,0 km/h NW 12,4 C 20,2 C 0,0 km/h
25.09.2015 12:00 22,6 C 54 % 1019,4 hPa 0,0 l/m 3,2 km/h NW 12,8 C 22,6 C 1,8 km/h
25.09.2015 13:00 23,8 C 50 % 1018,9 hPa 0,0 l/m 0,0 km/h N-NO 12,7 C 23,8 C 0,0 km/h
25.09.2015 14:00 23,2 C 46 % 1018,5 hPa 0,0 l/m 0,0 km/h N-NO 10,9 C 23,2 C 0,0 km/h
25.09.2015 15:00 25,3 C 45 % 1018,6 hPa 0,0 l/m 0,0 km/h O-NO 12,5 C 25,3 C 0,0 km/h
25.09.2015 16:00 21,8 C 51 % 1018,4 hPa 0,0 l/m 0,0 km/h O 11,2 C 21,8 C 0,0 km/h
25.09.2015 17:00 22,4 C 49 % 1018,4 hPa 0,0 l/m 0,0 km/h O 11,2 C 22,4 C 0,0 km/h
25.09.2015 18:00 21,1 C 60 % 1018,6 hPa 0,0 l/m 0,0 km/h NO 13,0 C 21,1 C 0,0 km/h
25.09.2015 19:00 15,2 C 71 % 1019,0 hPa 0,0 l/m 0,0 km/h NO 10,0 C 15,2 C 0,0 km/h
25.09.2015 20:00 13,6 C 75 % 1019,6 hPa 0,0 l/m 0,6 km/h SO 9,3 C 13,6 C 0,4 km/h
25.09.2015 21:00 11,8 C 80 % 1019,9 hPa 0,0 l/m 0,0 km/h SO 8,5 C 11,8 C 0,0 km/h
25.09.2015 22:00 10,8 C 82 % 1019,9 hPa 0,0 l/m 0,0 km/h SO 7,9 C 10,8 C 0,0 km/h
25.09.2015 23:00 11,0 C 84 % 1019,9 hPa 0,0 l/m 0,0 km/h SO 8,4 C 11,0 C 0,0 km/h
26.09.2015 00:00 11,4 C 85 % 1019,8 hPa 0,0 l/m 0,0 km/h O 9,0 C 11,4 C 0,0 km/h
26.09.2015 01:00 11,8 C 85 % 1019,8 hPa 0,0 l/m 0,0 km/h O 9,4 C 11,8 C 0,0 km/h
26.09.2015 02:00 11,5 C 85 % 1019,7 hPa 0,0 l/m 0,0 km/h O 9,1 C 11,5 C 0,0 km/h
26.09.2015 03:00 11,5 C 85 % 1019,5 hPa 0,0 l/m 0,0 km/h O 9,1 C 11,5 C 0,0 km/h
26.09.2015 04:00 11,4 C 85 % 1019,3 hPa 0,0 l/m 0,0 km/h O 9,0 C 11,4 C 0,0 km/h
26.09.2015 05:00 11,4 C 85 % 1019,0 hPa 0,0 l/m 0,0 km/h O 9,0 C 11,4 C 0,0 km/h
26.09.2015 06:00 11,3 C 85 % 1019,2 hPa 0,0 l/m 0,0 km/h SO 8,9 C 11,3 C 0,0 km/h
26.09.2015 07:00 11,2 C 85 % 1019,6 hPa 0,0 l/m 0,0 km/h W-SW 8,8 C 11,2 C 0,0 km/h
26.09.2015 08:00 11,9 C 84 % 1020,0 hPa 0,0 l/m 0,0 km/h W-NW 9,3 C 11,9 C 0,0 km/h
26.09.2015 09:00 13,3 C 85 % 1020,1 hPa 0,0 l/m 0,0 km/h W 10,8 C 13,3 C 0,0 km/h
26.09.2015 10:00 20,1 C 73 % 1020,0 hPa 0,0 l/m 5,2 km/h O-NO 15,1 C 20,1 C 2,9 km/h
26.09.2015 11:00 22,5 C 61 % 1019,5 hPa 0,0 l/m 0,0 km/h N 14,6 C 22,5 C 0,0 km/h
26.09.2015 12:00 23,2 C 44 % 1019,3 hPa 0,0 l/m 28,5 km/h N-NO 10,3 C 19,4 C 15,8 km/h
26.09.2015 13:00 23,1 C 42 % 1019,3 hPa 0,0 l/m 20,1 km/h NO 9,5 C 20,2 C 11,2 km/h
26.09.2015 14:00 23,8 C 39 % 1019,0 hPa 0,0 l/m 5,8 km/h NO 9,0 C 23,8 C 3,2 km/h
26.09.2015 15:00 24,1 C 42 % 1019,0 hPa 0,0 l/m 0,0 km/h N-NO 10,4 C 24,1 C 0,0 km/h
26.09.2015 16:00 21,9 C 42 % 1019,2 hPa 0,0 l/m 3,9 km/h N-NO 8,4 C 21,9 C 2,2 km/h
26.09.2015 17:00 19,9 C 46 % 1019,5 hPa 0,0 l/m 0,0 km/h N-NO 7,9 C 19,9 C 0,0 km/h
26.09.2015 18:00 17,8 C 51 % 1019,8 hPa 0,0 l/m 0,0 km/h SO 7,5 C 17,8 C 0,0 km/h
26.09.2015 19:00 15,6 C 60 % 1020,3 hPa 0,0 l/m 0,0 km/h O-SO 7,9 C 15,6 C 0,0 km/h
26.09.2015 20:00 15,5 C 61 % 1020,8 hPa 0,0 l/m 0,0 km/h N-NO 8,0 C 15,5 C 0,0 km/h
26.09.2015 21:00 15,0 C 65 % 1021,0 hPa 0,0 l/m 8,4 km/h NO 8,5 C 13,9 C 4,7 km/h
26.09.2015 22:00 14,0 C 68 % 1020,8 hPa 0,0 l/m 0,0 km/h NO 8,2 C 14,0 C 0,0 km/h
26.09.2015 23:00 13,2 C 73 % 1020,9 hPa 0,0 l/m 0,0 km/h N-NO 8,5 C 13,2 C 0,0 km/h
27.09.2015 00:00 12,6 C 75 % 1020,8 hPa 0,0 l/m 0,0 km/h N-NO 8,3 C 12,6 C 0,0 km/h
27.09.2015 01:00 10,5 C 79 % 1020,9 hPa 0,0 l/m 0,0 km/h W-NW 7,0 C 10,5 C 0,0 km/h
27.09.2015 02:00 9,2 C 83 % 1021,1 hPa 0,0 l/m 0,0 km/h S-SO 6,5 C 9,2 C 0,0 km/h
27.09.2015 03:00 7,6 C 84 % 1021,2 hPa 0,0 l/m 0,0 km/h O 5,1 C 7,6 C 0,0 km/h
27.09.2015 04:00 6,9 C 85 % 1021,6 hPa 0,0 l/m 0,0 km/h O-SO 4,6 C 6,9 C 0,0 km/h
27.09.2015 05:00 6,5 C 85 % 1021,7 hPa 0,0 l/m 0,0 km/h W-SW 4,2 C 6,5 C 0,0 km/h
27.09.2015 06:00 7,0 C 85 % 1021,6 hPa 0,0 l/m 0,0 km/h W 4,7 C 7,0 C 0,0 km/h
27.09.2015 07:00 6,9 C 85 % 1022,2 hPa 0,0 l/m 0,0 km/h S 4,6 C 6,9 C 0,0 km/h
27.09.2015 08:00 8,4 C 84 % 1022,7 hPa 0,0 l/m 0,0 km/h W 5,9 C 8,4 C 0,0 km/h
27.09.2015 09:00 14,5 C 83 % 1023,2 hPa 0,0 l/m 0,6 km/h N-NO 11,6 C 14,5 C 0,4 km/h
27.09.2015 10:00 19,3 C 59 % 1023,2 hPa 0,0 l/m 13,6 km/h N-NO 11,1 C 16,8 C 7,6 km/h
27.09.2015 11:00 21,4 C 50 % 1023,6 hPa 0,0 l/m 0,0 km/h S-SO 10,5 C 21,4 C 0,0 km/h
27.09.2015 12:00 22,5 C 46 % 1023,6 hPa 0,0 l/m 7,8 km/h N-NO 10,3 C 22,0 C 4,3 km/h
27.09.2015 13:00 23,9 C 42 % 1023,7 hPa 0,0 l/m 11,7 km/h S-SO 10,2 C 22,6 C 6,5 km/h
27.09.2015 14:00 22,6 C 43 % 1023,8 hPa 0,0 l/m 0,0 km/h O-SO 9,4 C 22,6 C 0,0 km/h
27.09.2015 15:00 22,1 C 44 % 1024,0 hPa 0,0 l/m 7,1 km/h O-NO 9,3 C 21,9 C 4,0 km/h
27.09.2015 16:00 22,9 C 35 % 1024,1 hPa 0,0 l/m 0,0 km/h NO 6,6 C 22,9 C 0,0 km/h
27.09.2015 17:00 20,3 C 43 % 1024,6 hPa 0,0 l/m 3,9 km/h NW 7,3 C 20,3 C 2,2 km/h
27.09.2015 18:00 20,4 C 41 % 1025,2 hPa 0,0 l/m 0,0 km/h NO 6,7 C 20,4 C 0,0 km/h
27.09.2015 19:00 13,3 C 53 % 1026,0 hPa 0,0 l/m 0,0 km/h O-SO 3,9 C 13,3 C 0,0 km/h
27.09.2015 20:00 10,2 C 61 % 1026,5 hPa 0,0 l/m 0,0 km/h O-NO 3,0 C 10,2 C 0,0 km/h
27.09.2015 21:00 8,4 C 72 % 1026,9 hPa 0,0 l/m 0,0 km/h SO 3,7 C 8,4 C 0,0 km/h
27.09.2015 22:00 6,6 C 75 % 1027,0 hPa 0,0 l/m 2,6 km/h SO 2,5 C 6,6 C 1,4 km/h
27.09.2015 23:00 5,4 C 79 % 1026,9 hPa 0,0 l/m 0,0 km/h SO 2,1 C 5,4 C 0,0 km/h
Min-Datum _ 27.09.15 27.09.15 22.09.15 - 21.09.15 - 27.09.15 23.09.15 21.09.15
_ Min-Zeit 23:42 16:42 19:42 - 00:42 - 23:42 07:42 00:42
Minimum _ 5,4 C 35 % 1002,0 hPa - 0,0 km/h - 2,1 C 2,9 C 0,0 km/h
Max-Datum _ 21.09.15 21.09.15 27.09.15 22.09.15 22.09.15 - 26.09.15 21.09.15 22.09.15
_ Max-Zeit 16:42 01:42 22:42 20:42 14:42 - 10:42 16:42 14:42
Maximum _ 27,8 C 86 % 1027,0 hPa 4,1 l/m 36,9 km/h
SW
- 15,1 C 27,8 C 20,5 km/h
SW
Durchschnitt _ 14,3 C 72 % 1015,8 hPa #9,5 l/m 3,0 km/h SO 8,9 C 13,8 C 1,7 km/h
www.sexauwetter.de